createdAt,value
2022-12-15T00:02:20.006Z,-7.70
2022-12-15T00:05:05.677Z,-7.60
2022-12-15T00:07:52.288Z,-7.70
2022-12-15T00:10:38.084Z,-7.80
2022-12-15T00:13:30.597Z,-7.80
2022-12-15T00:16:16.841Z,-7.80
2022-12-15T00:19:02.380Z,-7.90
2022-12-15T00:21:49.088Z,-7.90
2022-12-15T00:24:34.254Z,-7.90
2022-12-15T00:27:20.033Z,-7.80
2022-12-15T00:30:05.205Z,-7.90
2022-12-15T00:32:50.952Z,-7.90
2022-12-15T00:35:36.685Z,-7.90
2022-12-15T00:38:33.181Z,-7.90
2022-12-15T00:41:01.663Z,-7.90
2022-12-15T00:43:33.363Z,-7.90
2022-12-15T00:46:21.056Z,-8.00
2022-12-15T00:48:48.121Z,-8.00
2022-12-15T00:51:16.318Z,-8.00
2022-12-15T00:54:02.443Z,-8.00
2022-12-15T00:56:48.278Z,-8.00
2022-12-15T00:59:33.832Z,-8.00
2022-12-15T01:02:21.309Z,-8.00
2022-12-15T01:05:06.571Z,-8.00
2022-12-15T01:07:52.616Z,-8.00
2022-12-15T01:10:38.434Z,-8.00
2022-12-15T01:13:24.196Z,-8.00
2022-12-15T01:16:10.608Z,-8.00
2022-12-15T01:18:55.854Z,-8.00
2022-12-15T01:21:25.261Z,-8.00
2022-12-15T01:23:52.721Z,-8.00
2022-12-15T01:26:20.329Z,-8.00
2022-12-15T01:28:46.961Z,-8.00
2022-12-15T01:31:14.911Z,-8.00
2022-12-15T01:33:43.440Z,-8.00
2022-12-15T01:36:11.081Z,-8.00
2022-12-15T01:38:38.224Z,-8.00
2022-12-15T01:41:08.031Z,-8.00
2022-12-15T01:43:37.725Z,-8.00
2022-12-15T01:46:18.319Z,-8.00
2022-12-15T01:48:48.053Z,-7.90
2022-12-15T01:51:24.785Z,-8.00
2022-12-15T01:54:17.790Z,-8.00
2022-12-15T01:56:48.680Z,-8.00
2022-12-15T01:59:19.591Z,-8.00
2022-12-15T02:01:50.043Z,-8.00
2022-12-15T02:04:20.530Z,-8.00
2022-12-15T02:06:47.979Z,-7.90
2022-12-15T02:09:15.486Z,-7.90
2022-12-15T02:12:02.393Z,-7.80
2022-12-15T02:14:44.590Z,-7.80
2022-12-15T02:17:35.551Z,-7.80
2022-12-15T02:20:34.746Z,-7.80
2022-12-15T02:23:34.372Z,-7.80
2022-12-15T02:26:31.344Z,-7.80
2022-12-15T02:29:23.281Z,-7.70
2022-12-15T02:31:55.480Z,-7.70
2022-12-15T02:34:24.936Z,-7.70
2022-12-15T02:36:58.407Z,-7.70
2022-12-15T02:39:26.080Z,-7.70
2022-12-15T02:41:53.432Z,-7.60
2022-12-15T02:44:22.658Z,-7.60
2022-12-15T02:47:14.307Z,-7.70
2022-12-15T02:49:50.074Z,-7.70
2022-12-15T02:52:54.172Z,-7.70
2022-12-15T02:55:31.597Z,-7.70
2022-12-15T02:58:11.336Z,-7.70
2022-12-15T03:00:45.083Z,-7.70
2022-12-15T03:03:14.730Z,-7.70
2022-12-15T03:05:41.474Z,-7.70
2022-12-15T03:08:09.465Z,-7.70
2022-12-15T03:10:36.151Z,-7.80
2022-12-15T03:13:03.405Z,-7.80
2022-12-15T03:15:35.269Z,-7.80
2022-12-15T03:18:03.318Z,-7.80
2022-12-15T03:20:29.910Z,-7.80
2022-12-15T03:22:57.201Z,-7.80
2022-12-15T03:25:23.841Z,-7.70
2022-12-15T03:27:51.146Z,-7.70
2022-12-15T03:30:17.862Z,-7.70
2022-12-15T03:32:45.170Z,-7.70
2022-12-15T03:35:12.811Z,-7.70
2022-12-15T03:37:41.010Z,-7.70
2022-12-15T03:40:09.174Z,-7.70
2022-12-15T03:42:48.227Z,-7.80
2022-12-15T03:45:21.380Z,-7.80
2022-12-15T03:47:48.366Z,-7.80
2022-12-15T03:50:18.647Z,-7.80
2022-12-15T03:52:45.642Z,-7.80
2022-12-15T03:55:13.211Z,-7.80
2022-12-15T03:57:39.808Z,-7.90
2022-12-15T04:00:07.676Z,-7.90
2022-12-15T04:02:39.290Z,-7.90
2022-12-15T04:05:07.069Z,-7.90
2022-12-15T04:07:33.665Z,-7.90
2022-12-15T04:10:01.040Z,-8.00
2022-12-15T04:12:27.735Z,-8.00
2022-12-15T04:14:54.956Z,-8.00
2022-12-15T04:17:21.573Z,-8.00
2022-12-15T04:20:07.257Z,-8.00
2022-12-15T04:22:33.901Z,-8.00
2022-12-15T04:25:19.289Z,-7.90
2022-12-15T04:28:04.689Z,-7.90
2022-12-15T04:30:50.650Z,-7.90
2022-12-15T04:33:36.445Z,-7.80
2022-12-15T04:36:22.997Z,-7.80
2022-12-15T04:39:08.704Z,-7.70
2022-12-15T04:41:54.117Z,-7.70
2022-12-15T04:44:40.021Z,-7.70
2022-12-15T04:47:25.593Z,-7.70
2022-12-15T04:50:11.448Z,-7.60
2022-12-15T04:52:56.949Z,-7.60
2022-12-15T04:55:42.687Z,-7.50
2022-12-15T04:58:28.586Z,-7.50
2022-12-15T05:01:17.319Z,-7.50
2022-12-15T05:04:02.996Z,-7.50
2022-12-15T05:06:48.330Z,-7.50
2022-12-15T05:09:34.141Z,-7.40
2022-12-15T05:12:19.412Z,-7.50
2022-12-15T05:15:05.115Z,-7.50
2022-12-15T05:17:50.414Z,-7.60
2022-12-15T05:20:36.331Z,-7.60
2022-12-15T05:23:21.711Z,-7.60
2022-12-15T05:26:07.596Z,-7.60
2022-12-15T05:28:53.481Z,-7.70
2022-12-15T05:31:38.872Z,-7.70
2022-12-15T05:34:07.199Z,-7.80
2022-12-15T05:36:33.803Z,-7.70
2022-12-15T05:39:01.037Z,-7.70
2022-12-15T05:41:27.626Z,-7.70
2022-12-15T05:43:54.882Z,-7.70
2022-12-15T05:46:21.890Z,-7.70
2022-12-15T05:48:48.847Z,-7.70
2022-12-15T05:51:16.190Z,-7.70
2022-12-15T05:53:43.066Z,-7.60
2022-12-15T05:56:13.092Z,-7.60
2022-12-15T05:58:45.136Z,-7.60
2022-12-15T06:01:18.097Z,-7.60
2022-12-15T06:03:44.931Z,-7.60
2022-12-15T06:06:13.253Z,-7.60
2022-12-15T06:08:42.037Z,-7.60
2022-12-15T06:11:12.686Z,-7.60
2022-12-15T06:13:39.930Z,-7.60
2022-12-15T06:16:18.895Z,-7.60
2022-12-15T06:18:49.955Z,-7.60
2022-12-15T06:21:19.993Z,-7.70
2022-12-15T06:23:47.911Z,-7.70
2022-12-15T06:26:17.513Z,-7.70
2022-12-15T06:28:44.595Z,-7.80
2022-12-15T06:31:13.040Z,-7.80
2022-12-15T06:33:40.279Z,-7.80
2022-12-15T06:36:13.462Z,-7.80
2022-12-15T06:38:43.284Z,-7.80
2022-12-15T06:41:13.037Z,-7.80
2022-12-15T06:43:40.227Z,-7.90
2022-12-15T06:46:09.169Z,-7.90
2022-12-15T06:48:35.963Z,-7.90
2022-12-15T06:51:05.473Z,-8.00
2022-12-15T06:53:32.771Z,-7.90
2022-12-15T06:56:07.360Z,-7.90
2022-12-15T06:58:34.375Z,-7.90
2022-12-15T07:01:08.026Z,-7.90
2022-12-15T07:03:36.139Z,-7.90
2022-12-15T07:06:06.079Z,-7.90
2022-12-15T07:08:40.989Z,-7.90
2022-12-15T07:11:12.405Z,-7.90
2022-12-15T07:13:40.480Z,-7.80
2022-12-15T07:16:08.201Z,-7.80
2022-12-15T07:18:34.804Z,-7.80
2022-12-15T07:21:04.601Z,-7.80
2022-12-15T07:23:53.452Z,-7.70
2022-12-15T07:26:18.916Z,-7.70
2022-12-15T07:28:45.908Z,-7.60
2022-12-15T07:31:12.589Z,-7.60
2022-12-15T07:33:39.840Z,-7.60
2022-12-15T07:36:08.622Z,-7.60
2022-12-15T07:38:35.981Z,-7.60
2022-12-15T07:41:08.197Z,-7.60
2022-12-15T07:43:35.730Z,-7.60
2022-12-15T07:46:04.736Z,-7.60
2022-12-15T07:48:32.243Z,-7.60
2022-12-15T07:51:08.485Z,-7.50
2022-12-15T07:53:38.762Z,-7.50
2022-12-15T07:56:08.585Z,-7.50
2022-12-15T07:58:36.157Z,-7.50
2022-12-15T08:01:06.465Z,-7.40
2022-12-15T08:03:34.087Z,-7.50
2022-12-15T08:06:06.147Z,-7.40
2022-12-15T08:08:34.322Z,-7.40
2022-12-15T08:11:06.654Z,-7.30
2022-12-15T08:16:22.035Z,-7.20
2022-12-15T08:18:48.747Z,-7.10
2022-12-15T08:21:16.389Z,-7.10
2022-12-15T08:23:43.043Z,-7.00
2022-12-15T08:26:12.840Z,-7.00
2022-12-15T08:28:40.902Z,-7.00
2022-12-15T08:31:13.952Z,-7.00
2022-12-15T08:33:41.091Z,-6.90
2022-12-15T08:36:10.415Z,-6.80
2022-12-15T08:38:38.876Z,-6.70
2022-12-15T08:41:10.365Z,-6.60
2022-12-15T08:43:41.286Z,-6.60
2022-12-15T08:46:14.410Z,-6.50
2022-12-15T08:48:41.085Z,-6.40
2022-12-15T08:51:08.384Z,-6.30
2022-12-15T08:53:35.048Z,-6.20
2022-12-15T08:56:04.474Z,-6.10
2022-12-15T08:58:31.242Z,-6.00
2022-12-15T09:01:17.325Z,-5.90
2022-12-15T09:03:48.351Z,-5.80
2022-12-15T09:06:20.972Z,-5.70
2022-12-15T09:08:50.360Z,-5.70
2022-12-15T09:11:17.854Z,-5.60
2022-12-15T09:13:45.243Z,-5.50
2022-12-15T09:16:15.567Z,-5.40
2022-12-15T09:18:45.239Z,-5.40
2022-12-15T09:21:13.236Z,-5.30
2022-12-15T09:23:40.709Z,-5.30
2022-12-15T09:26:13.200Z,-5.20
2022-12-15T09:28:40.663Z,-5.20
2022-12-15T09:31:17.613Z,-5.00
2022-12-15T09:33:45.144Z,-5.00
2022-12-15T09:36:13.031Z,-4.90
2022-12-15T09:38:41.978Z,-4.80
2022-12-15T09:41:14.835Z,-4.70
2022-12-15T09:44:14.623Z,-4.70
2022-12-15T09:47:18.645Z,-4.60
2022-12-15T09:49:52.705Z,-4.50
2022-12-15T09:52:33.352Z,-4.40
2022-12-15T09:55:02.003Z,-4.30
2022-12-15T09:58:09.077Z,-4.30
2022-12-15T10:00:45.856Z,-4.20
2022-12-15T10:03:40.543Z,-4.10
2022-12-15T10:09:24.386Z,-4.00
2022-12-15T10:12:07.165Z,-3.90
2022-12-15T10:14:45.990Z,-3.90
2022-12-15T10:17:16.679Z,-3.80
2022-12-15T10:19:55.688Z,-3.80
2022-12-15T10:22:35.022Z,-3.70
2022-12-15T10:25:20.869Z,-3.60
2022-12-15T10:28:05.142Z,-3.60
2022-12-15T10:30:33.297Z,-3.50
2022-12-15T10:33:20.584Z,-3.50
2022-12-15T10:35:49.096Z,-3.40
2022-12-15T10:38:37.492Z,-3.30
2022-12-15T10:41:20.952Z,-3.30
2022-12-15T10:43:50.397Z,-3.20
2022-12-15T10:46:20.571Z,-3.10
2022-12-15T10:49:10.337Z,-3.10
2022-12-15T10:51:44.574Z,-3.10
2022-12-15T10:54:13.901Z,-3.10
2022-12-15T10:56:57.360Z,-3.10
2022-12-15T10:59:25.780Z,-3.00
2022-12-15T11:01:52.905Z,-3.00
2022-12-15T11:04:38.470Z,-3.00
2022-12-15T11:07:14.338Z,-2.90
2022-12-15T11:09:41.941Z,-2.90
2022-12-15T11:12:42.658Z,-2.90
2022-12-15T11:15:24.882Z,-2.90
2022-12-15T11:18:26.972Z,-2.90
2022-12-15T11:21:02.723Z,-2.90
2022-12-15T11:23:46.685Z,-2.90
2022-12-15T11:26:28.138Z,-3.00
2022-12-15T11:29:00.697Z,-3.00
2022-12-15T11:31:43.382Z,-3.00
2022-12-15T11:34:22.366Z,-2.90
2022-12-15T11:37:36.226Z,-2.90
2022-12-15T11:40:28.314Z,-2.80
2022-12-15T11:43:16.758Z,-2.80
2022-12-15T11:46:18.922Z,-2.80
2022-12-15T11:49:39.186Z,-2.80
2022-12-15T11:52:30.391Z,-2.80
2022-12-15T11:55:17.872Z,-2.70
2022-12-15T11:58:22.832Z,-2.80
2022-12-15T12:01:23.734Z,-2.70
2022-12-15T12:04:21.335Z,-2.70
2022-12-15T12:07:04.254Z,-2.70
2022-12-15T12:09:39.347Z,-2.70
2022-12-15T12:12:17.932Z,-2.70
2022-12-15T12:15:05.203Z,-2.60
2022-12-15T12:17:43.398Z,-2.60
2022-12-15T12:20:54.270Z,-2.50
2022-12-15T12:23:52.861Z,-2.50
2022-12-15T12:26:26.487Z,-2.60
2022-12-15T12:29:07.374Z,-2.50
2022-12-15T12:32:04.167Z,-2.50
2022-12-15T12:35:30.877Z,-2.50
2022-12-15T12:37:50.849Z,-2.50
2022-12-15T12:40:40.462Z,-2.50
2022-12-15T12:43:13.554Z,-2.50
2022-12-15T12:45:50.477Z,-2.60
2022-12-15T12:48:34.243Z,-2.50
2022-12-15T12:51:18.490Z,-2.60
2022-12-15T12:53:45.194Z,-2.50
2022-12-15T12:59:37.779Z,-2.50
2022-12-15T13:02:45.247Z,-2.50
2022-12-15T13:05:33.115Z,-2.50
2022-12-15T13:08:05.786Z,-2.50
2022-12-15T13:10:36.454Z,-2.60
2022-12-15T13:13:31.772Z,-2.60
2022-12-15T13:16:21.515Z,-2.60
2022-12-15T13:19:14.779Z,-2.60
2022-12-15T13:21:42.128Z,-2.60
2022-12-15T13:24:27.116Z,-2.60
2022-12-15T13:27:09.646Z,-2.60
2022-12-15T13:29:54.001Z,-2.70
2022-12-15T13:32:33.916Z,-2.60
2022-12-15T13:35:14.257Z,-2.70
2022-12-15T13:37:50.533Z,-2.60
2022-12-15T13:40:38.464Z,-2.60
2022-12-15T13:43:05.004Z,-2.60
2022-12-15T13:45:38.163Z,-2.60
2022-12-15T13:48:20.212Z,-2.50
2022-12-15T13:51:21.421Z,-2.50
2022-12-15T13:54:00.139Z,-2.50
2022-12-15T13:56:46.552Z,-2.50
2022-12-15T13:59:34.222Z,-2.60
2022-12-15T14:02:00.936Z,-2.60
2022-12-15T14:04:28.348Z,-2.60
2022-12-15T14:06:57.600Z,-2.60
2022-12-15T14:09:39.571Z,-2.60
2022-12-15T14:12:11.962Z,-2.60
2022-12-15T14:14:43.313Z,-2.50
2022-12-15T14:17:15.178Z,-2.50
2022-12-15T14:19:44.339Z,-2.60
2022-12-15T14:22:30.081Z,-2.50
2022-12-15T14:25:20.941Z,-2.60
2022-12-15T14:30:36.958Z,-2.60
2022-12-15T14:33:09.092Z,-2.60
2022-12-15T14:35:55.939Z,-2.50
2022-12-15T14:38:34.822Z,-2.50
2022-12-15T14:41:04.125Z,-2.50
2022-12-15T14:43:38.839Z,-2.50
2022-12-15T14:46:22.531Z,-2.50
2022-12-15T14:48:57.331Z,-2.50
2022-12-15T14:51:26.512Z,-2.50
2022-12-15T14:53:54.696Z,-2.60
2022-12-15T14:56:29.396Z,-2.60
2022-12-15T14:59:05.848Z,-2.70
2022-12-15T15:01:56.269Z,-2.80
2022-12-15T15:03:06.436Z,-4.00
2022-12-15T15:03:10.415Z,-2.50
2022-12-15T15:04:32.954Z,-2.90
2022-12-15T15:07:02.222Z,-2.90
2022-12-15T15:09:38.082Z,-2.90
2022-12-15T15:12:23.729Z,-3.00
2022-12-15T15:15:01.422Z,-3.00
2022-12-15T15:17:50.150Z,-3.10
2022-12-15T15:20:21.414Z,-3.10
2022-12-15T15:23:08.459Z,-3.20
2022-12-15T15:26:06.134Z,-3.20
2022-12-15T15:28:41.848Z,-3.30
2022-12-15T15:31:30.904Z,-3.30
2022-12-15T15:34:01.079Z,-3.40
2022-12-15T15:36:38.604Z,-3.60
2022-12-15T15:39:13.424Z,-3.70
2022-12-15T15:41:40.499Z,-3.70
2022-12-15T15:44:13.960Z,-3.80
2022-12-15T15:46:48.609Z,-3.90
2022-12-15T15:49:18.781Z,-3.90
2022-12-15T15:51:45.643Z,-4.00
2022-12-15T15:54:17.785Z,-4.10
2022-12-15T15:56:44.726Z,-4.10
2022-12-15T15:59:16.389Z,-4.10
2022-12-15T16:01:45.047Z,-4.20
2022-12-15T16:04:12.166Z,-4.20
2022-12-15T16:06:43.625Z,-4.30
2022-12-15T16:09:15.793Z,-4.30
2022-12-15T16:11:43.819Z,-4.30
2022-12-15T16:14:15.431Z,-4.40
2022-12-15T16:16:43.688Z,-4.40
2022-12-15T16:19:12.116Z,-4.40
2022-12-15T16:21:40.824Z,-4.50
2022-12-15T16:24:15.521Z,-4.40
2022-12-15T16:26:48.167Z,-4.50
2022-12-15T16:29:16.489Z,-4.50
2022-12-15T16:31:45.806Z,-4.50
2022-12-15T16:34:14.135Z,-4.50
2022-12-15T16:36:41.243Z,-4.50
2022-12-15T16:39:33.880Z,-4.60
2022-12-15T16:42:01.321Z,-4.60
2022-12-15T16:44:29.263Z,-4.60
2022-12-15T16:46:57.580Z,-4.70
2022-12-15T16:49:24.666Z,-4.70
2022-12-15T16:51:53.505Z,-4.70
2022-12-15T16:54:25.545Z,-4.70
2022-12-15T16:56:54.290Z,-4.70
2022-12-15T16:59:33.141Z,-4.70
2022-12-15T17:02:02.132Z,-4.70
2022-12-15T17:04:29.196Z,-4.70
2022-12-15T17:06:56.113Z,-4.70
2022-12-15T17:09:25.343Z,-4.80
2022-12-15T17:11:52.390Z,-4.80
2022-12-15T17:14:21.183Z,-4.90
2022-12-15T17:16:47.747Z,-4.90
2022-12-15T17:19:20.875Z,-4.90
2022-12-15T17:21:50.763Z,-4.90
2022-12-15T17:24:20.663Z,-4.90
2022-12-15T17:26:47.700Z,-4.90
2022-12-15T17:29:19.306Z,-5.00
2022-12-15T17:31:46.057Z,-5.00
2022-12-15T17:34:30.578Z,-5.00
2022-12-15T17:36:59.533Z,-5.00
2022-12-15T17:39:27.137Z,-5.00
2022-12-15T17:42:02.873Z,-5.00
2022-12-15T17:44:37.476Z,-5.00
2022-12-15T17:47:07.969Z,-5.00
2022-12-15T17:49:37.208Z,-5.00
2022-12-15T17:52:24.788Z,-5.00
2022-12-15T17:54:51.997Z,-4.90
2022-12-15T17:57:19.392Z,-5.00
2022-12-15T17:59:46.372Z,-4.90
2022-12-15T18:02:14.384Z,-4.90
2022-12-15T18:04:42.242Z,-4.90
2022-12-15T18:07:21.939Z,-4.90
2022-12-15T18:09:50.833Z,-4.90
2022-12-15T18:12:23.372Z,-4.90
2022-12-15T18:14:50.397Z,-5.00
2022-12-15T18:17:17.556Z,-5.00
2022-12-15T18:19:44.776Z,-5.00
2022-12-15T18:22:15.464Z,-5.00
2022-12-15T18:24:42.229Z,-5.10
2022-12-15T18:27:26.944Z,-5.10
2022-12-15T18:29:54.287Z,-5.10
2022-12-15T18:32:24.189Z,-5.10
2022-12-15T18:34:51.063Z,-5.20
2022-12-15T18:37:20.210Z,-5.20
2022-12-15T18:39:48.362Z,-5.30
2022-12-15T18:42:18.411Z,-5.40
2022-12-15T18:44:56.526Z,-5.40
2022-12-15T18:47:25.158Z,-5.50
2022-12-15T18:49:51.903Z,-5.50
2022-12-15T18:52:26.610Z,-5.50
2022-12-15T18:54:55.539Z,-5.50
2022-12-15T18:57:32.236Z,-5.60
2022-12-15T19:00:15.592Z,-5.60
2022-12-15T19:02:43.324Z,-5.60
2022-12-15T19:05:27.071Z,-5.60
2022-12-15T19:08:10.252Z,-5.60
2022-12-15T19:10:45.751Z,-5.70
2022-12-15T19:13:17.763Z,-5.70
2022-12-15T19:15:45.878Z,-5.70
2022-12-15T19:18:41.189Z,-5.70
2022-12-15T19:21:37.048Z,-5.60
2022-12-15T19:24:06.515Z,-5.70
2022-12-15T19:26:33.297Z,-5.70
2022-12-15T19:29:00.520Z,-5.70
2022-12-15T19:31:27.256Z,-5.70
2022-12-15T19:33:54.280Z,-5.80
2022-12-15T19:36:23.654Z,-5.90
2022-12-15T19:38:54.364Z,-5.90
2022-12-15T19:41:21.329Z,-6.00
2022-12-15T19:43:48.392Z,-6.00
2022-12-15T19:46:20.874Z,-6.00
2022-12-15T19:48:48.153Z,-6.10
2022-12-15T19:51:21.368Z,-6.10
2022-12-15T19:53:48.941Z,-6.20
2022-12-15T19:56:22.406Z,-6.20
2022-12-15T19:58:50.429Z,-6.20
2022-12-15T20:01:19.850Z,-6.30
2022-12-15T20:03:49.385Z,-6.20
2022-12-15T20:06:25.520Z,-6.20
2022-12-15T20:08:55.909Z,-6.10
2022-12-15T20:11:29.180Z,-6.10
2022-12-15T20:13:56.806Z,-6.10
2022-12-15T20:16:24.051Z,-6.10
2022-12-15T20:18:53.725Z,-6.20
2022-12-15T20:21:22.793Z,-6.10
2022-12-15T20:24:13.931Z,-6.20
2022-12-15T20:26:41.298Z,-6.20
2022-12-15T20:29:25.382Z,-6.20
2022-12-15T20:31:52.753Z,-6.20
2022-12-15T20:34:20.280Z,-6.20
2022-12-15T20:36:47.343Z,-6.20
2022-12-15T20:39:27.111Z,-6.20
2022-12-15T20:41:54.581Z,-6.20
2022-12-15T20:44:23.267Z,-6.30
2022-12-15T20:46:50.253Z,-6.20
2022-12-15T20:49:20.030Z,-6.20
2022-12-15T20:51:47.955Z,-6.30
2022-12-15T20:54:18.041Z,-6.30
2022-12-15T20:56:45.160Z,-6.40
2022-12-15T20:59:12.880Z,-6.50
2022-12-15T21:01:39.910Z,-6.50
2022-12-15T21:04:28.730Z,-6.50
2022-12-15T21:06:56.236Z,-6.60
2022-12-15T21:09:24.348Z,-6.60
2022-12-15T21:11:54.851Z,-6.60
2022-12-15T21:14:23.727Z,-6.70
2022-12-15T21:16:50.796Z,-6.70
2022-12-15T21:19:21.182Z,-6.80
2022-12-15T21:21:52.938Z,-6.70
2022-12-15T21:24:25.331Z,-6.80
2022-12-15T21:26:52.530Z,-6.70
2022-12-15T21:29:23.496Z,-6.70
2022-12-15T21:31:50.532Z,-6.70
2022-12-15T21:34:18.133Z,-6.80
2022-12-15T21:36:49.698Z,-6.90
2022-12-15T21:39:31.217Z,-6.90
2022-12-15T21:42:00.050Z,-6.90
2022-12-15T21:44:27.426Z,-6.90
2022-12-15T21:46:54.656Z,-6.90
2022-12-15T21:49:22.312Z,-6.90
2022-12-15T21:51:55.220Z,-6.90
2022-12-15T21:54:30.679Z,-6.90
2022-12-15T21:56:58.287Z,-7.00
2022-12-15T21:59:28.263Z,-6.90
2022-12-15T22:01:55.968Z,-7.00
2022-12-15T22:04:34.249Z,-7.00
2022-12-15T22:07:01.476Z,-7.00
2022-12-15T22:09:28.857Z,-7.00
2022-12-15T22:11:56.621Z,-7.00
2022-12-15T22:14:31.845Z,-7.00
2022-12-15T22:16:59.948Z,-7.00
2022-12-15T22:19:27.012Z,-7.00
2022-12-15T22:21:53.778Z,-7.10
2022-12-15T22:24:21.027Z,-7.10
2022-12-15T22:26:47.894Z,-7.00
2022-12-15T22:29:21.732Z,-7.00
2022-12-15T22:31:50.155Z,-7.00
2022-12-15T22:34:20.776Z,-7.10
2022-12-15T22:36:48.032Z,-7.10
2022-12-15T22:39:15.361Z,-7.10
2022-12-15T22:41:44.693Z,-7.20
2022-12-15T22:44:16.849Z,-7.20
2022-12-15T22:46:43.657Z,-7.20
2022-12-15T22:49:17.893Z,-7.20
2022-12-15T22:51:44.828Z,-7.30
2022-12-15T22:54:26.087Z,-7.30
2022-12-15T22:57:03.822Z,-7.40
2022-12-15T22:59:34.481Z,-7.40
2022-12-15T23:02:02.475Z,-7.40
2022-12-15T23:04:30.943Z,-7.40
2022-12-15T23:06:59.811Z,-7.40
2022-12-15T23:09:27.139Z,-7.40
2022-12-15T23:11:54.179Z,-7.50
2022-12-15T23:14:41.174Z,-7.50
2022-12-15T23:17:08.165Z,-7.60
2022-12-15T23:19:35.583Z,-7.60
2022-12-15T23:22:02.179Z,-7.60
2022-12-15T23:24:29.477Z,-7.60
2022-12-15T23:26:56.054Z,-7.60
2022-12-15T23:29:23.351Z,-7.70
2022-12-15T23:31:49.963Z,-7.70
2022-12-15T23:34:17.223Z,-7.70
2022-12-15T23:36:43.944Z,-7.70
2022-12-15T23:39:11.213Z,-7.70
2022-12-15T23:41:37.799Z,-7.70
2022-12-15T23:44:05.864Z,-7.70
2022-12-15T23:46:32.680Z,-7.70
2022-12-15T23:48:59.873Z,-7.70
2022-12-15T23:51:26.511Z,-7.80
2022-12-15T23:53:53.828Z,-7.80
2022-12-15T23:56:24.016Z,-7.80
2022-12-15T23:58:56.846Z,-7.80
